Time;durP1;ratioP1;P1;durP2;ratioP2;P2;SDS_P1;SDS_P2;PMS_P1;PMS_P2;Temp;Humidity;BMP_temperature;BMP_pressure;BME280_temperature;BME280_humidity;BME280_pressure;Samples;Min_cycle;Max_cycle;Signal;HPM_P1;HPM_P2
2023/09/06 00:10:14;;;;;;;;;;;;;;;;;;;;;
2023/09/06 00:32:15;;;;;;;;;;;;;;;;;;;;;
2023/09/06 00:38:24;;;;;;;759.92;687.80;;;17.90;99.90;;;;;;6302810;22;20077;-93
2023/09/06 01:33:42;;;;;;;729.10;663.90;;;17.50;99.90;;;;;;5976688;23;20418;-92
2023/09/06 02:17:53;;;;;;;831.03;751.83;;;16.90;99.90;;;;;;6154026;22;20030;-93
2023/09/06 03:23:17;;;;;;;803.50;729.33;;;16.30;99.90;;;;;;6299288;22;20031;-91
2023/09/06 03:49:26;;;;;;;897.72;811.25;;;16.10;99.90;;;;;;6240846;22;20023;-92
2023/09/06 04:22:10;;;;;;;927.55;833.25;;;16.00;99.90;;;;;;6033901;23;20066;-93
2023/09/06 04:42:20;;;;;;;817.15;740.78;;;15.70;99.90;;;;;;6330811;22;20023;-93
2023/09/06 04:49:04;;;;;;;857.85;773.78;;;15.60;99.90;;;;;;6281498;22;20450;-93
2023/09/06 04:55:23;;;;;;;;;;;15.50;99.90;;;;;;6305947;22;20023;-93
2023/09/06 04:58:35;;;;;;;918.28;825.78;;;15.50;99.90;;;;;;6307933;22;19910;-93
2023/09/06 05:01:27;;;;;;;929.28;834.63;;;15.50;99.90;;;;;;6283414;22;20461;-93
2023/09/06 05:11:41;;;;;;;878.70;791.15;;;15.50;99.90;;;;;;6277127;22;20164;-94
2023/09/06 05:19:00;;;;;;;910.17;819.47;;;15.60;99.90;;;;;;6275787;22;20065;-95
2023/09/06 05:22:17;;;;;;;869.78;785.58;;;15.60;99.90;;;;;;6144698;23;20172;-95
2023/09/06 05:25:10;;;;;;;866.13;774.80;;;15.70;99.90;;;;;;6034546;23;20027;-95
2023/09/06 05:28:55;;;;;;;799.70;719.55;;;15.70;99.90;;;;;;6009842;23;20365;-95
2023/09/06 05:53:00;;;;;;;851.22;767.45;;;16.00;99.90;;;;;;6332440;22;20105;-94
2023/09/06 05:56:00;;;;;;;683.22;621.88;;;16.10;99.90;;;;;;6285677;22;19999;-96
2023/09/06 05:59:09;;;;;;;733.03;668.10;;;16.10;99.90;;;;;;6305331;22;20074;-94
2023/09/06 06:05:25;;;;;;;;;;;;;;;;;;;;;
2023/09/06 06:08:34;;;;;;;708.20;643.80;;;16.40;99.90;;;;;;6208132;23;20021;-93
2023/09/06 06:11:30;;;;;;;;;;;;;;;;;;;;;
2023/09/06 06:15:19;;;;;;;;;;;;;;;;;;;;;
2023/09/06 06:24:36;;;;;;;773.33;705.28;;;16.80;99.90;;;;;;6263462;22;20031;-92
2023/09/06 06:27:21;;;;;;;697.50;631.35;;;16.80;99.90;;;;;;6236383;23;20031;-92
2023/09/06 06:30:17;;;;;;;;;;;;;;;;;;;;;
2023/09/06 06:33:35;;;;;;;650.25;590.95;;;17.00;99.90;;;;;;6236354;22;20078;-93
2023/09/06 06:36:51;;;;;;;696.22;632.97;;;17.10;99.90;;;;;;6214567;23;20030;-92
2023/09/06 06:40:38;;;;;;;534.08;488.45;;;17.20;99.90;;;;;;6120643;23;20624;-92
2023/09/06 06:42:55;;;;;;;453.58;415.65;;;17.30;99.90;;;;;;6114540;23;20025;-92
2023/09/06 06:45:21;;;;;;;548.58;504.88;;;17.40;99.90;;;;;;6278037;22;20108;-92
2023/09/06 06:47:58;;;;;;;492.92;450.55;;;17.50;99.90;;;;;;6279499;22;20029;-93
2023/09/06 06:50:30;;;;;;;480.95;439.75;;;17.60;99.90;;;;;;6307612;22;20027;-91
2023/09/06 06:53:25;;;;;;;511.73;468.45;;;17.70;99.90;;;;;;6279928;22;20505;-92
2023/09/06 06:55:54;;;;;;;517.97;477.13;;;17.90;99.90;;;;;;6282579;22;20026;-91
2023/09/06 06:58:25;;;;;;;699.22;643.92;;;18.00;99.90;;;;;;6305578;22;20015;-92
2023/09/06 07:00:50;;;;;;;712.90;654.20;;;18.10;99.90;;;;;;6279972;22;20067;-91
2023/09/06 07:06:32;;;;;;;712.88;651.30;;;18.20;99.90;;;;;;6318724;22;20049;-91
2023/09/06 07:12:08;;;;;;;689.15;628.70;;;18.50;99.90;;;;;;6297395;22;20019;-91
2023/09/06 07:15:06;;;;;;;728.35;665.08;;;18.70;99.90;;;;;;6248342;22;20011;-91
2023/09/06 07:18:09;;;;;;;640.83;586.90;;;18.80;99.90;;;;;;6279655;22;20117;-89
2023/09/06 07:31:22;;;;;;;555.95;508.88;;;19.40;99.90;;;;;;6287665;22;20034;-91
2023/09/06 07:34:09;;;;;;;656.17;597.13;;;19.50;99.90;;;;;;6249270;22;20019;-91
2023/09/06 07:40:38;;;;;;;;;;;19.80;99.90;;;;;;6256709;22;20019;-92
2023/09/06 08:09:35;;;;;;;415.38;381.75;;;21.10;99.90;;;;;;6273742;22;20069;-90
2023/09/06 08:19:04;;;;;;;437.30;400.88;;;21.40;99.90;;;;;;6181227;23;20106;-90
2023/09/06 08:22:40;;;;;;;602.03;549.30;;;21.50;99.90;;;;;;6170376;23;20021;-90
2023/09/06 08:25:49;;;;;;;471.23;431.48;;;21.60;99.90;;;;;;6147154;23;20012;-90
2023/09/06 08:31:52;;;;;;;524.35;479.08;;;21.90;99.90;;;;;;6170418;23;20048;-90
2023/09/06 08:34:38;;;;;;;747.40;678.42;;;22.10;99.90;;;;;;6248437;22;20099;-90
2023/09/06 08:37:45;;;;;;;;;;;;;;;;;;;;;
2023/09/06 08:40:48;;;;;;;618.63;562.88;;;22.30;99.90;;;;;;6208134;23;20035;-91
2023/09/06 08:50:08;;;;;;;539.35;492.98;;;22.60;99.90;;;;;;6168387;23;20033;-91
2023/09/06 08:53:30;;;;;;;448.20;410.65;;;22.80;99.90;;;;;;6159360;23;20012;-91
2023/09/06 08:56:23;;;;;;;475.20;434.02;;;23.00;99.90;;;;;;6158044;23;20103;-91
2023/09/06 09:33:29;;;;;;;941.42;853.33;;;24.20;99.90;;;;;;6123502;23;20032;-92
2023/09/06 09:42:51;;;;;;;964.60;873.38;;;24.40;99.90;;;;;;6223215;22;20061;-92
2023/09/06 09:56:29;;;;;;;;;;;;;;;;;;;;;
2023/09/06 10:03:46;;;;;;;678.95;619.05;;;25.10;99.90;;;;;;6097475;22;20021;-93
2023/09/06 10:06:13;;;;;;;;;;;;;;;;;;;;;
2023/09/06 10:12:52;;;;;;;304.98;283.08;;;25.40;99.90;;;;;;6273473;22;20023;-93
2023/09/06 10:15:23;;;;;;;200.77;186.15;;;25.40;99.90;;;;;;6276203;22;20058;-93
2023/09/06 10:19:08;;;;;;;;;;;;;;;;;;;;;
2023/09/06 10:22:24;;;;;;;313.77;290.70;;;25.60;99.90;;;;;;6165654;23;20086;-95
2023/09/06 10:28:36;;;;;;;240.95;223.77;;;25.80;99.90;;;;;;6279857;22;20023;-94
2023/09/06 10:31:50;;;;;;;;;;;;;;;;;;;;;
2023/09/06 10:42:45;;;;;;;;;;;;;;;;;;;;;
2023/09/06 10:46:40;;;;;;;;;;;;;;;;;;;;;
2023/09/06 11:01:29;;;;;;;;;;;;;;;;;;;;;
2023/09/06 11:05:25;;;;;;;;;;;;;;;;;;;;;
2023/09/06 15:05:41;;;;;;;;;;;;;;;;;;;;;
2023/09/06 17:29:48;;;;;;;;;;;;;;;;;;;;;
2023/09/06 17:36:39;;;;;;;306.83;281.10;;;25.70;99.90;;;;;;6087928;23;20021;-92
2023/09/06 17:39:45;;;;;;;;;;;;;;;;;;;;;
2023/09/06 17:47:01;;;;;;;;;;;;;;;;;;;;;
2023/09/06 17:54:26;;;;;;;;;;;;;;;;;;;;;
2023/09/06 17:57:41;;;;;;;405.48;374.58;;;25.00;99.90;;;;;;6115771;23;20022;-92
2023/09/06 18:04:00;;;;;;;;;;;;;;;;;;;;;
2023/09/06 18:06:42;;;;;;;470.50;432.98;;;24.50;99.90;;;;;;6276066;22;20023;-93
2023/09/06 18:17:33;;;;;;;928.42;835.90;;;24.20;99.90;;;;;;6177140;23;20021;-93
2023/09/06 18:23:52;;;;;;;926.72;837.83;;;23.90;99.90;;;;;;6208726;22;20038;-92
2023/09/06 18:29:31;;;;;;;907.58;816.80;;;23.60;99.90;;;;;;6271237;22;20517;-93
2023/09/06 18:31:57;;;;;;;881.40;798.25;;;23.50;99.90;;;;;;6271077;22;20479;-92
2023/09/06 18:35:11;;;;;;;;;;;;;;;;;;;;;
2023/09/06 18:40:24;;;;;;;747.90;682.67;;;23.20;99.90;;;;;;6225808;22;20012;-93
2023/09/06 18:43:42;;;;;;;;;;;;;;;;;;;;;
2023/09/06 18:46:34;;;;;;;793.65;721.53;;;23.00;99.90;;;;;;6221365;22;20062;-92
2023/09/06 18:52:26;;;;;;;793.72;725.72;;;22.90;99.90;;;;;;6229925;22;20085;-92
2023/09/06 18:54:54;;;;;;;657.85;603.03;;;22.70;99.90;;;;;;6218290;22;20479;-92
2023/09/06 19:01:00;;;;;;;599.15;549.28;;;22.60;99.90;;;;;;6188768;22;20452;-92
2023/09/06 19:06:40;;;;;;;686.60;628.03;;;22.50;99.90;;;;;;6193467;23;20071;-91
2023/09/06 19:09:08;;;;;;;598.58;549.55;;;22.30;99.90;;;;;;6184120;23;20325;-92
2023/09/06 19:11:45;;;;;;;657.60;600.17;;;22.30;99.90;;;;;;6182775;23;20024;-92
2023/09/06 19:14:46;;;;;;;657.83;601.55;;;22.20;99.90;;;;;;6185068;23;20529;-93
2023/09/06 19:17:17;;;;;;;584.95;537.72;;;22.20;99.90;;;;;;6231313;23;20174;-91
2023/09/06 19:19:53;;;;;;;;;;;;;;;;;;;;;
2023/09/06 19:23:11;;;;;;;;;;;;;;;;;;;;;
2023/09/06 19:25:52;;;;;;;;;;;;;;;;;;;;;
2023/09/06 19:31:30;;;;;;;463.52;426.60;;;21.80;99.90;;;;;;6153588;23;20540;-92
2023/09/06 19:34:16;;;;;;;282.73;262.00;;;21.70;99.90;;;;;;6183740;23;20016;-92
2023/09/06 19:36:45;;;;;;;389.58;358.88;;;21.60;99.90;;;;;;6184265;23;20024;-92
2023/09/06 19:39:11;;;;;;;259.92;239.50;;;21.60;99.90;;;;;;6208036;23;20013;-92
2023/09/06 19:42:17;;;;;;;376.08;346.75;;;21.60;99.90;;;;;;6207139;23;20035;-92
2023/09/06 19:44:59;;;;;;;;;;;;;;;;;;;;;
2023/09/06 19:47:34;;;;;;;355.48;327.65;;;21.50;99.90;;;;;;6208239;23;20117;-91
2023/09/06 19:50:03;;;;;;;357.13;328.58;;;21.50;99.90;;;;;;6166625;23;20016;-92
2023/09/06 19:56:16;;;;;;;415.48;381.17;;;21.40;99.90;;;;;;6295974;22;20023;-93
2023/09/06 20:01:41;;;;;;;399.20;365.33;;;21.30;99.90;;;;;;6274648;22;20023;-92
2023/09/06 20:08:29;;;;;;;364.63;337.52;;;21.20;99.90;;;;;;6253200;22;20102;-92
2023/09/06 20:14:46;;;;;;;363.30;336.13;;;21.00;99.90;;;;;;6272646;22;20019;-93
2023/09/06 20:17:17;;;;;;;360.90;333.42;;;21.00;99.90;;;;;;6216481;22;20433;-91
2023/09/06 20:19:46;;;;;;;309.50;286.98;;;21.00;99.90;;;;;;6275113;22;20015;-92
2023/09/06 20:29:20;;;;;;;;;;;;;;;;;;;;;
2023/09/06 20:31:57;;;;;;;363.15;335.00;;;20.70;99.90;;;;;;6299666;22;20023;-92
2023/09/06 20:34:26;;;;;;;324.10;299.70;;;20.70;99.90;;;;;;6251059;22;20062;-91
2023/09/06 20:36:59;;;;;;;348.45;321.45;;;20.60;99.90;;;;;;6248713;22;20427;-90
2023/09/06 20:39:25;;;;;;;334.45;308.88;;;20.60;99.90;;;;;;6240292;22;20451;-92
2023/09/06 20:51:51;;;;;;;359.38;332.98;;;20.50;99.90;;;;;;6115913;23;20466;-93
2023/09/06 20:54:22;;;;;;;395.55;365.52;;;20.40;99.90;;;;;;6140971;23;20021;-92
2023/09/06 20:56:56;;;;;;;403.38;372.00;;;20.40;99.90;;;;;;6182702;23;20020;-92
2023/09/06 20:59:22;;;;;;;419.08;386.95;;;20.30;99.90;;;;;;6189228;23;20452;-93
2023/09/06 21:01:54;;;;;;;335.17;311.52;;;20.30;99.90;;;;;;6164633;23;20031;-91
2023/09/06 21:04:23;;;;;;;326.33;303.13;;;20.30;99.90;;;;;;6188398;23;20020;-93
2023/09/06 21:06:51;;;;;;;373.10;346.42;;;20.20;99.90;;;;;;6215834;23;20070;-93
2023/09/06 21:09:20;;;;;;;339.58;314.55;;;20.00;99.90;;;;;;6214793;23;20031;-92
2023/09/06 21:11:49;;;;;;;371.77;344.00;;;20.20;99.90;;;;;;6214870;23;20016;-92
2023/09/06 21:14:15;;;;;;;464.92;428.85;;;20.20;99.90;;;;;;6188730;23;20421;-92
2023/09/06 21:16:41;;;;;;;518.30;475.73;;;20.10;99.90;;;;;;6189240;23;20475;-90
2023/09/06 21:19:07;;;;;;;409.25;377.95;;;20.10;99.90;;;;;;6215401;23;20014;-91
2023/09/06 21:21:32;;;;;;;390.20;361.42;;;20.10;99.90;;;;;;6216475;23;20048;-93
2023/09/06 21:24:01;;;;;;;444.88;409.73;;;20.00;99.90;;;;;;6191421;23;20012;-92
2023/09/06 21:26:27;;;;;;;355.85;328.83;;;19.80;99.90;;;;;;6188973;23;20103;-91
2023/09/06 21:28:55;;;;;;;442.02;407.45;;;20.00;99.90;;;;;;6190279;23;20035;-93
2023/09/06 21:31:22;;;;;;;471.42;433.70;;;19.90;99.90;;;;;;6215738;23;20043;-92
2023/09/06 21:33:50;;;;;;;421.38;388.25;;;19.90;99.90;;;;;;6189486;23;20066;-92
2023/09/06 21:36:16;;;;;;;457.65;419.90;;;19.90;99.90;;;;;;6189998;23;20023;-92
2023/09/06 21:38:41;;;;;;;351.08;325.75;;;19.90;99.90;;;;;;6189751;23;20012;-93
2023/09/06 21:41:08;;;;;;;362.10;335.98;;;19.90;99.90;;;;;;6188561;23;20055;-93
2023/09/06 21:43:33;;;;;;;451.90;416.02;;;19.90;99.90;;;;;;6189704;23;20022;-92
2023/09/06 21:46:02;;;;;;;433.75;399.65;;;19.80;99.90;;;;;;6189456;23;20523;-93
2023/09/06 21:48:28;;;;;;;561.38;515.63;;;19.90;99.90;;;;;;6215547;23;20016;-93
2023/09/06 21:51:09;;;;;;;428.13;395.52;;;19.80;99.90;;;;;;6189535;23;20017;-92
2023/09/06 21:53:45;;;;;;;364.27;337.70;;;19.80;99.90;;;;;;6191040;23;20017;-93
2023/09/06 21:56:14;;;;;;;443.92;410.05;;;19.80;99.90;;;;;;6189265;23;20070;-93
2023/09/06 21:58:40;;;;;;;482.40;442.77;;;19.80;99.90;;;;;;6214986;23;20103;-92
2023/09/06 22:01:08;;;;;;;387.33;357.95;;;19.70;99.90;;;;;;6213660;23;20038;-92
2023/09/06 22:03:34;;;;;;;441.75;406.85;;;19.70;99.90;;;;;;6215208;23;20016;-91
2023/09/06 22:06:05;;;;;;;400.08;369.17;;;19.70;99.90;;;;;;6189161;23;20466;-91
2023/09/06 22:08:34;;;;;;;415.65;383.50;;;19.70;99.90;;;;;;6189382;23;20023;-92
2023/09/06 22:11:00;;;;;;;427.73;394.92;;;19.60;99.90;;;;;;6188692;23;20103;-92
2023/09/06 22:13:26;;;;;;;421.80;387.50;;;19.60;99.90;;;;;;6190376;23;20119;-92
2023/09/06 22:15:54;;;;;;;457.13;418.98;;;19.60;99.90;;;;;;6188327;23;20074;-91
2023/09/06 22:18:19;;;;;;;440.83;404.65;;;19.50;99.90;;;;;;6190705;23;20448;-91
2023/09/06 22:20:45;;;;;;;491.83;450.98;;;19.50;99.90;;;;;;6188957;23;20008;-91
2023/09/06 22:23:11;;;;;;;564.45;517.55;;;19.40;99.90;;;;;;6188661;23;20020;-91
2023/09/06 22:25:39;;;;;;;598.08;547.67;;;19.40;99.90;;;;;;6214704;23;20020;-91
2023/09/06 22:28:08;;;;;;;614.38;561.95;;;19.30;99.90;;;;;;6188767;23;20349;-91
2023/09/06 22:30:38;;;;;;;629.30;576.08;;;19.30;99.90;;;;;;6215342;23;20012;-91
2023/09/06 22:33:04;;;;;;;626.50;574.40;;;19.30;99.90;;;;;;6189824;23;20008;-91
2023/09/06 22:35:30;;;;;;;629.13;576.58;;;19.30;99.90;;;;;;6188697;23;20020;-92
2023/09/06 22:37:59;;;;;;;677.60;618.85;;;19.20;99.90;;;;;;6189085;23;20440;-91
2023/09/06 22:40:27;;;;;;;709.95;649.33;;;19.20;99.90;;;;;;6189845;23;20016;-91
2023/09/06 22:42:53;;;;;;;676.92;619.00;;;19.10;99.90;;;;;;6187762;23;20022;-92
2023/09/06 22:45:22;;;;;;;655.92;599.92;;;19.00;99.90;;;;;;6215163;23;20097;-91
2023/09/06 22:47:50;;;;;;;665.67;608.33;;;19.10;99.90;;;;;;6215030;23;20016;-92
2023/09/06 22:50:16;;;;;;;654.90;600.60;;;19.10;99.90;;;;;;6188682;23;20016;-92
2023/09/06 22:52:42;;;;;;;714.97;652.30;;;19.00;99.90;;;;;;6188754;23;20471;-92
2023/09/06 22:55:07;;;;;;;663.50;608.47;;;19.00;99.90;;;;;;6189110;23;20023;-92
2023/09/06 22:57:33;;;;;;;701.92;639.75;;;18.90;99.90;;;;;;6214159;23;20078;-92
2023/09/06 23:00:07;;;;;;;713.45;650.22;;;18.90;99.90;;;;;;6188808;23;20094;-92
2023/09/06 23:02:50;;;;;;;694.72;634.33;;;18.90;99.90;;;;;;6215100;23;20016;-92
2023/09/06 23:05:18;;;;;;;723.42;658.90;;;18.90;99.90;;;;;;6188684;23;20107;-92
2023/09/06 23:07:45;;;;;;;659.35;602.03;;;18.90;99.90;;;;;;6188977;23;20047;-92
2023/09/06 23:10:16;;;;;;;678.55;620.38;;;18.90;99.90;;;;;;6188883;23;20105;-91
2023/09/06 23:12:43;;;;;;;708.20;647.72;;;18.90;99.90;;;;;;6213750;23;20016;-91
2023/09/06 23:15:12;;;;;;;689.78;630.28;;;18.90;99.90;;;;;;6189952;23;20020;-92
2023/09/06 23:17:49;;;;;;;707.40;644.60;;;18.80;99.90;;;;;;6188033;23;20083;-91
2023/09/06 23:20:26;;;;;;;636.40;581.35;;;18.80;99.90;;;;;;6188874;23;20015;-92
2023/09/06 23:23:04;;;;;;;602.90;552.92;;;18.80;99.90;;;;;;6189828;23;20433;-91
2023/09/06 23:25:36;;;;;;;662.13;606.00;;;18.80;99.90;;;;;;6213625;23;20020;-91
2023/09/06 23:28:11;;;;;;;721.83;657.40;;;18.80;99.90;;;;;;6214643;23;20012;-91
2023/09/06 23:30:44;;;;;;;662.72;605.40;;;18.80;99.90;;;;;;6188307;23;20099;-91
2023/09/06 23:36:28;;;;;;;665.70;608.05;;;18.80;99.90;;;;;;6094463;23;20033;-92
2023/09/06 23:38:56;;;;;;;635.83;580.90;;;18.80;99.90;;;;;;6171866;23;20105;-92
2023/09/06 23:41:23;;;;;;;649.13;593.03;;;18.80;99.90;;;;;;6213988;23;20020;-92
2023/09/06 23:43:49;;;;;;;570.28;523.40;;;18.70;99.90;;;;;;6188254;23;20050;-91
2023/09/06 23:46:17;;;;;;;581.58;532.05;;;18.70;99.90;;;;;;6214217;23;20094;-92
2023/09/06 23:48:43;;;;;;;559.63;512.40;;;18.70;99.90;;;;;;6188468;23;20013;-91
2023/09/06 23:51:09;;;;;;;499.90;457.85;;;18.70;99.90;;;;;;6189664;23;20031;-92
2023/09/06 23:53:34;;;;;;;552.13;504.95;;;18.80;99.90;;;;;;6188339;23;20376;-91
2023/09/06 23:56:03;;;;;;;531.85;487.17;;;18.80;99.90;;;;;;6188326;23;20023;-91
2023/09/06 23:58:29;;;;;;;509.10;466.08;;;18.80;99.90;;;;;;6214806;23;20020;-91
